sensor_id;sensor_type;location;lat;lon;timestamp;P1;durP1;ratioP1;P2;durP2;ratioP2
71435;SDS011;59251;51.326;12.370;2023-03-04T00:00:54;15.35;;;5.22;;
71435;SDS011;59251;51.326;12.370;2023-03-04T00:03:20;15.57;;;5.67;;
71435;SDS011;59251;51.326;12.370;2023-03-04T00:05:45;17.90;;;5.83;;
71435;SDS011;59251;51.326;12.370;2023-03-04T00:08:11;20.95;;;7.25;;
71435;SDS011;59251;51.326;12.370;2023-03-04T00:10:36;18.83;;;7.00;;
71435;SDS011;59251;51.326;12.370;2023-03-04T00:13:02;13.20;;;4.47;;
71435;SDS011;59251;51.326;12.370;2023-03-04T00:15:27;19.90;;;6.70;;
71435;SDS011;59251;51.326;12.370;2023-03-04T00:17:52;15.82;;;5.75;;
71435;SDS011;59251;51.326;12.370;2023-03-04T00:20:18;13.77;;;5.20;;
71435;SDS011;59251;51.326;12.370;2023-03-04T00:22:43;13.83;;;5.57;;
71435;SDS011;59251;51.326;12.370;2023-03-04T00:25:08;16.37;;;6.60;;
71435;SDS011;59251;51.326;12.370;2023-03-04T00:27:34;16.30;;;5.23;;
71435;SDS011;59251;51.326;12.370;2023-03-04T00:29:59;21.13;;;7.33;;
71435;SDS011;59251;51.326;12.370;2023-03-04T00:32:24;18.80;;;6.90;;
71435;SDS011;59251;51.326;12.370;2023-03-04T00:34:50;21.10;;;7.60;;
71435;SDS011;59251;51.326;12.370;2023-03-04T00:37:15;15.27;;;5.68;;
71435;SDS011;59251;51.326;12.370;2023-03-04T00:39:41;14.20;;;6.00;;
71435;SDS011;59251;51.326;12.370;2023-03-04T00:42:06;20.77;;;6.00;;
71435;SDS011;59251;51.326;12.370;2023-03-04T00:44:31;20.73;;;6.40;;
71435;SDS011;59251;51.326;12.370;2023-03-04T00:46:57;12.47;;;5.83;;
71435;SDS011;59251;51.326;12.370;2023-03-04T00:49:22;21.40;;;7.40;;
71435;SDS011;59251;51.326;12.370;2023-03-04T00:51:48;23.23;;;7.93;;
71435;SDS011;59251;51.326;12.370;2023-03-04T00:54:14;23.27;;;7.60;;
71435;SDS011;59251;51.326;12.370;2023-03-04T00:56:39;20.13;;;7.63;;
71435;SDS011;59251;51.326;12.370;2023-03-04T00:59:05;22.10;;;7.40;;
71435;SDS011;59251;51.326;12.370;2023-03-04T01:01:30;23.50;;;8.20;;
71435;SDS011;59251;51.326;12.370;2023-03-04T01:03:55;14.03;;;4.60;;
71435;SDS011;59251;51.326;12.370;2023-03-04T01:06:21;21.77;;;7.57;;
71435;SDS011;59251;51.326;12.370;2023-03-04T01:08:46;18.00;;;6.63;;
71435;SDS011;59251;51.326;12.370;2023-03-04T01:11:11;24.53;;;8.53;;
71435;SDS011;59251;51.326;12.370;2023-03-04T01:13:37;25.00;;;8.53;;
71435;SDS011;59251;51.326;12.370;2023-03-04T01:16:03;22.63;;;7.75;;
71435;SDS011;59251;51.326;12.370;2023-03-04T01:18:29;24.85;;;7.30;;
71435;SDS011;59251;51.326;12.370;2023-03-04T01:20:55;17.90;;;6.43;;
71435;SDS011;59251;51.326;12.370;2023-03-04T01:23:20;22.33;;;8.10;;
71435;SDS011;59251;51.326;12.370;2023-03-04T01:25:46;22.27;;;6.37;;
71435;SDS011;59251;51.326;12.370;2023-03-04T01:28:11;25.57;;;8.87;;
71435;SDS011;59251;51.326;12.370;2023-03-04T01:30:37;23.03;;;8.70;;
71435;SDS011;59251;51.326;12.370;2023-03-04T01:33:02;20.33;;;7.37;;
71435;SDS011;59251;51.326;12.370;2023-03-04T01:35:27;22.55;;;8.23;;
71435;SDS011;59251;51.326;12.370;2023-03-04T01:37:53;23.10;;;7.53;;
71435;SDS011;59251;51.326;12.370;2023-03-04T01:40:18;20.47;;;7.40;;
71435;SDS011;59251;51.326;12.370;2023-03-04T01:42:44;23.23;;;8.10;;
71435;SDS011;59251;51.326;12.370;2023-03-04T01:45:11;22.77;;;7.30;;
71435;SDS011;59251;51.326;12.370;2023-03-04T01:47:39;20.42;;;6.85;;
71435;SDS011;59251;51.326;12.370;2023-03-04T01:50:06;21.80;;;8.70;;
71435;SDS011;59251;51.326;12.370;2023-03-04T01:52:38;21.40;;;8.20;;
71435;SDS011;59251;51.326;12.370;2023-03-04T01:55:08;18.05;;;6.60;;
71435;SDS011;59251;51.326;12.370;2023-03-04T01:57:46;21.67;;;7.78;;
71435;SDS011;59251;51.326;12.370;2023-03-04T02:00:23;19.95;;;7.60;;
71435;SDS011;59251;51.326;12.370;2023-03-04T02:02:56;20.92;;;7.57;;
71435;SDS011;59251;51.326;12.370;2023-03-04T02:05:24;19.33;;;7.00;;
71435;SDS011;59251;51.326;12.370;2023-03-04T02:07:51;20.38;;;7.35;;
71435;SDS011;59251;51.326;12.370;2023-03-04T02:10:18;18.00;;;4.97;;
71435;SDS011;59251;51.326;12.370;2023-03-04T02:12:44;22.13;;;7.70;;
71435;SDS011;59251;51.326;12.370;2023-03-04T02:15:10;17.00;;;6.50;;
71435;SDS011;59251;51.326;12.370;2023-03-04T02:17:35;17.90;;;6.32;;
71435;SDS011;59251;51.326;12.370;2023-03-04T02:20:05;22.98;;;7.60;;
71435;SDS011;59251;51.326;12.370;2023-03-04T02:22:31;20.08;;;7.55;;
71435;SDS011;59251;51.326;12.370;2023-03-04T02:25:12;19.53;;;7.43;;
71435;SDS011;59251;51.326;12.370;2023-03-04T02:27:43;19.38;;;6.43;;
71435;SDS011;59251;51.326;12.370;2023-03-04T02:30:09;19.08;;;7.70;;
71435;SDS011;59251;51.326;12.370;2023-03-04T02:32:35;18.98;;;6.78;;
71435;SDS011;59251;51.326;12.370;2023-03-04T02:35:01;22.95;;;7.38;;
71435;SDS011;59251;51.326;12.370;2023-03-04T02:37:26;22.00;;;7.55;;
71435;SDS011;59251;51.326;12.370;2023-03-04T02:39:52;22.33;;;7.43;;
71435;SDS011;59251;51.326;12.370;2023-03-04T02:42:17;20.25;;;7.75;;
71435;SDS011;59251;51.326;12.370;2023-03-04T02:44:44;23.17;;;8.40;;
71435;SDS011;59251;51.326;12.370;2023-03-04T02:47:13;13.60;;;5.22;;
71435;SDS011;59251;51.326;12.370;2023-03-04T02:49:41;22.97;;;7.00;;
71435;SDS011;59251;51.326;12.370;2023-03-04T02:52:16;19.75;;;6.80;;
71435;SDS011;59251;51.326;12.370;2023-03-04T02:54:43;22.67;;;7.93;;
71435;SDS011;59251;51.326;12.370;2023-03-04T02:57:09;17.50;;;6.33;;
71435;SDS011;59251;51.326;12.370;2023-03-04T02:59:36;22.98;;;7.80;;
71435;SDS011;59251;51.326;12.370;2023-03-04T03:02:03;24.50;;;7.83;;
71435;SDS011;59251;51.326;12.370;2023-03-04T03:04:28;19.35;;;7.60;;
71435;SDS011;59251;51.326;12.370;2023-03-04T03:06:54;17.33;;;6.43;;
71435;SDS011;59251;51.326;12.370;2023-03-04T03:09:19;22.57;;;8.27;;
71435;SDS011;59251;51.326;12.370;2023-03-04T03:11:45;20.25;;;8.30;;
71435;SDS011;59251;51.326;12.370;2023-03-04T03:14:10;21.17;;;7.30;;
71435;SDS011;59251;51.326;12.370;2023-03-04T03:16:36;22.80;;;7.63;;
71435;SDS011;59251;51.326;12.370;2023-03-04T03:19:02;18.20;;;6.03;;
71435;SDS011;59251;51.326;12.370;2023-03-04T03:21:27;23.35;;;7.45;;
71435;SDS011;59251;51.326;12.370;2023-03-04T03:23:53;18.40;;;6.70;;
71435;SDS011;59251;51.326;12.370;2023-03-04T03:26:18;18.70;;;7.00;;
71435;SDS011;59251;51.326;12.370;2023-03-04T03:28:44;20.40;;;7.53;;
71435;SDS011;59251;51.326;12.370;2023-03-04T03:31:10;19.98;;;8.25;;
71435;SDS011;59251;51.326;12.370;2023-03-04T03:33:35;18.17;;;7.10;;
71435;SDS011;59251;51.326;12.370;2023-03-04T03:36:01;19.10;;;7.60;;
71435;SDS011;59251;51.326;12.370;2023-03-04T03:38:26;21.25;;;7.13;;
71435;SDS011;59251;51.326;12.370;2023-03-04T03:40:52;24.13;;;8.73;;
71435;SDS011;59251;51.326;12.370;2023-03-04T03:43:17;26.03;;;8.20;;
71435;SDS011;59251;51.326;12.370;2023-03-04T03:45:43;19.63;;;7.03;;
71435;SDS011;59251;51.326;12.370;2023-03-04T03:48:09;19.33;;;6.40;;
71435;SDS011;59251;51.326;12.370;2023-03-04T03:50:34;22.60;;;7.07;;
71435;SDS011;59251;51.326;12.370;2023-03-04T03:52:59;15.93;;;5.77;;
71435;SDS011;59251;51.326;12.370;2023-03-04T03:55:25;17.27;;;6.20;;
71435;SDS011;59251;51.326;12.370;2023-03-04T03:57:50;22.40;;;7.53;;
71435;SDS011;59251;51.326;12.370;2023-03-04T04:00:16;17.67;;;7.37;;
71435;SDS011;59251;51.326;12.370;2023-03-04T04:02:41;18.75;;;6.93;;
71435;SDS011;59251;51.326;12.370;2023-03-04T04:05:07;21.13;;;6.87;;
71435;SDS011;59251;51.326;12.370;2023-03-04T04:07:34;20.90;;;6.90;;
71435;SDS011;59251;51.326;12.370;2023-03-04T04:10:00;15.00;;;5.47;;
71435;SDS011;59251;51.326;12.370;2023-03-04T04:12:25;22.17;;;7.80;;
71435;SDS011;59251;51.326;12.370;2023-03-04T04:14:51;19.20;;;7.05;;
71435;SDS011;59251;51.326;12.370;2023-03-04T04:17:16;21.70;;;7.23;;
71435;SDS011;59251;51.326;12.370;2023-03-04T04:19:41;19.77;;;7.03;;
71435;SDS011;59251;51.326;12.370;2023-03-04T04:22:08;17.03;;;5.87;;
71435;SDS011;59251;51.326;12.370;2023-03-04T04:24:38;19.10;;;7.50;;
71435;SDS011;59251;51.326;12.370;2023-03-04T04:27:03;23.10;;;7.70;;
71435;SDS011;59251;51.326;12.370;2023-03-04T04:29:29;23.40;;;8.53;;
71435;SDS011;59251;51.326;12.370;2023-03-04T04:31:55;26.30;;;8.43;;
71435;SDS011;59251;51.326;12.370;2023-03-04T04:34:20;26.03;;;8.97;;
71435;SDS011;59251;51.326;12.370;2023-03-04T04:36:45;20.90;;;8.30;;
71435;SDS011;59251;51.326;12.370;2023-03-04T04:39:11;23.10;;;8.98;;
71435;SDS011;59251;51.326;12.370;2023-03-04T04:41:37;22.70;;;8.00;;
71435;SDS011;59251;51.326;12.370;2023-03-04T04:44:04;14.83;;;5.73;;
71435;SDS011;59251;51.326;12.370;2023-03-04T04:46:30;20.33;;;7.50;;
71435;SDS011;59251;51.326;12.370;2023-03-04T04:48:55;19.60;;;6.93;;
71435;SDS011;59251;51.326;12.370;2023-03-04T04:51:20;22.07;;;7.57;;
71435;SDS011;59251;51.326;12.370;2023-03-04T04:53:46;23.10;;;7.60;;
71435;SDS011;59251;51.326;12.370;2023-03-04T04:56:14;22.48;;;8.27;;
71435;SDS011;59251;51.326;12.370;2023-03-04T04:58:42;22.75;;;7.80;;
71435;SDS011;59251;51.326;12.370;2023-03-04T05:01:08;28.00;;;7.20;;
71435;SDS011;59251;51.326;12.370;2023-03-04T05:03:34;25.37;;;8.57;;
71435;SDS011;59251;51.326;12.370;2023-03-04T05:06:01;21.17;;;7.57;;
71435;SDS011;59251;51.326;12.370;2023-03-04T05:08:28;26.00;;;8.90;;
71435;SDS011;59251;51.326;12.370;2023-03-04T05:10:54;23.52;;;7.72;;
71435;SDS011;59251;51.326;12.370;2023-03-04T05:13:19;23.40;;;7.97;;
71435;SDS011;59251;51.326;12.370;2023-03-04T05:15:45;22.77;;;7.93;;
71435;SDS011;59251;51.326;12.370;2023-03-04T05:18:11;24.98;;;8.07;;
71435;SDS011;59251;51.326;12.370;2023-03-04T05:20:36;21.27;;;7.13;;
71435;SDS011;59251;51.326;12.370;2023-03-04T05:23:02;25.17;;;7.50;;
71435;SDS011;59251;51.326;12.370;2023-03-04T05:25:27;24.47;;;7.93;;
71435;SDS011;59251;51.326;12.370;2023-03-04T05:27:52;25.85;;;8.10;;
71435;SDS011;59251;51.326;12.370;2023-03-04T05:30:18;14.95;;;5.25;;
71435;SDS011;59251;51.326;12.370;2023-03-04T05:32:44;21.80;;;6.13;;
71435;SDS011;59251;51.326;12.370;2023-03-04T05:35:10;22.40;;;7.28;;
71435;SDS011;59251;51.326;12.370;2023-03-04T05:37:35;21.70;;;7.43;;
71435;SDS011;59251;51.326;12.370;2023-03-04T05:40:00;20.37;;;7.63;;
71435;SDS011;59251;51.326;12.370;2023-03-04T05:42:26;22.70;;;7.67;;
71435;SDS011;59251;51.326;12.370;2023-03-04T05:44:51;23.60;;;8.20;;
71435;SDS011;59251;51.326;12.370;2023-03-04T05:47:17;21.85;;;7.63;;
71435;SDS011;59251;51.326;12.370;2023-03-04T05:49:42;19.40;;;6.95;;
71435;SDS011;59251;51.326;12.370;2023-03-04T05:52:09;21.90;;;7.70;;
71435;SDS011;59251;51.326;12.370;2023-03-04T05:54:34;17.10;;;5.03;;
71435;SDS011;59251;51.326;12.370;2023-03-04T05:57:00;20.67;;;7.43;;
71435;SDS011;59251;51.326;12.370;2023-03-04T05:59:26;14.23;;;5.95;;
71435;SDS011;59251;51.326;12.370;2023-03-04T06:01:51;20.60;;;7.43;;
71435;SDS011;59251;51.326;12.370;2023-03-04T06:04:17;16.60;;;4.97;;
71435;SDS011;59251;51.326;12.370;2023-03-04T06:06:42;18.37;;;5.60;;
71435;SDS011;59251;51.326;12.370;2023-03-04T06:09:10;14.30;;;5.97;;
71435;SDS011;59251;51.326;12.370;2023-03-04T06:11:36;17.33;;;6.57;;
71435;SDS011;59251;51.326;12.370;2023-03-04T06:14:01;19.47;;;7.47;;
71435;SDS011;59251;51.326;12.370;2023-03-04T06:16:26;18.43;;;6.97;;
71435;SDS011;59251;51.326;12.370;2023-03-04T06:18:52;14.20;;;4.57;;
71435;SDS011;59251;51.326;12.370;2023-03-04T06:21:17;20.77;;;6.70;;
71435;SDS011;59251;51.326;12.370;2023-03-04T06:23:42;19.80;;;6.07;;
71435;SDS011;59251;51.326;12.370;2023-03-04T06:26:09;24.08;;;6.32;;
71435;SDS011;59251;51.326;12.370;2023-03-04T06:28:39;15.63;;;5.10;;
71435;SDS011;59251;51.326;12.370;2023-03-04T06:31:07;14.95;;;5.82;;
71435;SDS011;59251;51.326;12.370;2023-03-04T06:33:33;23.07;;;7.00;;
71435;SDS011;59251;51.326;12.370;2023-03-04T06:35:58;19.27;;;5.50;;
71435;SDS011;59251;51.326;12.370;2023-03-04T06:38:24;21.20;;;5.93;;
71435;SDS011;59251;51.326;12.370;2023-03-04T06:40:50;17.08;;;5.53;;
71435;SDS011;59251;51.326;12.370;2023-03-04T06:43:16;20.23;;;5.37;;
71435;SDS011;59251;51.326;12.370;2023-03-04T06:45:41;20.50;;;6.13;;
71435;SDS011;59251;51.326;12.370;2023-03-04T06:48:07;19.10;;;6.63;;
71435;SDS011;59251;51.326;12.370;2023-03-04T06:50:32;17.83;;;5.80;;
71435;SDS011;59251;51.326;12.370;2023-03-04T06:52:58;14.93;;;5.20;;
71435;SDS011;59251;51.326;12.370;2023-03-04T06:55:23;19.03;;;4.43;;
71435;SDS011;59251;51.326;12.370;2023-03-04T06:57:49;18.23;;;5.67;;
71435;SDS011;59251;51.326;12.370;2023-03-04T07:00:15;14.70;;;5.15;;
71435;SDS011;59251;51.326;12.370;2023-03-04T07:02:41;16.77;;;5.47;;
71435;SDS011;59251;51.326;12.370;2023-03-04T07:05:06;18.17;;;4.03;;
71435;SDS011;59251;51.326;12.370;2023-03-04T07:07:33;20.65;;;5.68;;
71435;SDS011;59251;51.326;12.370;2023-03-04T07:09:58;18.80;;;4.83;;
71435;SDS011;59251;51.326;12.370;2023-03-04T07:12:24;16.50;;;5.75;;
71435;SDS011;59251;51.326;12.370;2023-03-04T07:14:49;17.50;;;5.45;;
71435;SDS011;59251;51.326;12.370;2023-03-04T07:17:15;17.13;;;5.33;;
71435;SDS011;59251;51.326;12.370;2023-03-04T07:19:40;17.43;;;5.47;;
71435;SDS011;59251;51.326;12.370;2023-03-04T07:22:06;17.00;;;5.60;;
71435;SDS011;59251;51.326;12.370;2023-03-04T07:24:31;21.58;;;4.57;;
71435;SDS011;59251;51.326;12.370;2023-03-04T07:26:57;17.87;;;5.00;;
71435;SDS011;59251;51.326;12.370;2023-03-04T07:29:22;14.73;;;3.33;;
71435;SDS011;59251;51.326;12.370;2023-03-04T07:31:47;19.40;;;5.80;;
71435;SDS011;59251;51.326;12.370;2023-03-04T07:34:13;23.43;;;5.20;;
71435;SDS011;59251;51.326;12.370;2023-03-04T07:36:39;19.08;;;5.28;;
71435;SDS011;59251;51.326;12.370;2023-03-04T07:39:05;13.57;;;3.28;;
71435;SDS011;59251;51.326;12.370;2023-03-04T07:41:31;14.87;;;4.73;;
71435;SDS011;59251;51.326;12.370;2023-03-04T07:44:00;19.58;;;4.95;;
71435;SDS011;59251;51.326;12.370;2023-03-04T07:46:26;16.67;;;4.63;;
71435;SDS011;59251;51.326;12.370;2023-03-04T07:48:52;18.52;;;4.65;;
71435;SDS011;59251;51.326;12.370;2023-03-04T07:51:20;12.43;;;3.88;;
71435;SDS011;59251;51.326;12.370;2023-03-04T07:53:49;17.02;;;5.13;;
71435;SDS011;59251;51.326;12.370;2023-03-04T07:56:20;17.92;;;5.13;;
71435;SDS011;59251;51.326;12.370;2023-03-04T07:58:47;16.38;;;4.18;;
71435;SDS011;59251;51.326;12.370;2023-03-04T08:01:16;18.23;;;4.60;;
71435;SDS011;59251;51.326;12.370;2023-03-04T08:03:43;16.55;;;4.45;;
71435;SDS011;59251;51.326;12.370;2023-03-04T08:06:10;11.20;;;3.08;;
71435;SDS011;59251;51.326;12.370;2023-03-04T08:08:37;12.00;;;3.40;;
71435;SDS011;59251;51.326;12.370;2023-03-04T08:11:03;13.93;;;3.38;;
71435;SDS011;59251;51.326;12.370;2023-03-04T08:13:30;16.30;;;4.50;;
71435;SDS011;59251;51.326;12.370;2023-03-04T08:15:56;15.77;;;3.85;;
71435;SDS011;59251;51.326;12.370;2023-03-04T08:18:21;16.20;;;4.33;;
71435;SDS011;59251;51.326;12.370;2023-03-04T08:20:47;14.75;;;3.55;;
71435;SDS011;59251;51.326;12.370;2023-03-04T08:23:12;14.10;;;3.87;;
71435;SDS011;59251;51.326;12.370;2023-03-04T08:25:38;14.60;;;3.73;;
71435;SDS011;59251;51.326;12.370;2023-03-04T08:28:05;14.75;;;4.38;;
71435;SDS011;59251;51.326;12.370;2023-03-04T08:30:31;9.90;;;2.47;;
71435;SDS011;59251;51.326;12.370;2023-03-04T08:32:56;9.73;;;2.83;;
71435;SDS011;59251;51.326;12.370;2023-03-04T08:35:22;14.27;;;3.10;;
71435;SDS011;59251;51.326;12.370;2023-03-04T08:37:47;15.17;;;3.20;;
71435;SDS011;59251;51.326;12.370;2023-03-04T08:40:13;16.57;;;3.67;;
71435;SDS011;59251;51.326;12.370;2023-03-04T08:42:39;13.32;;;2.95;;
71435;SDS011;59251;51.326;12.370;2023-03-04T08:45:05;9.32;;;2.55;;
71435;SDS011;59251;51.326;12.370;2023-03-04T08:47:31;8.67;;;2.27;;
71435;SDS011;59251;51.326;12.370;2023-03-04T08:49:57;12.52;;;2.83;;
71435;SDS011;59251;51.326;12.370;2023-03-04T08:52:22;11.95;;;2.90;;
71435;SDS011;59251;51.326;12.370;2023-03-04T08:54:48;12.77;;;3.43;;
71435;SDS011;59251;51.326;12.370;2023-03-04T08:57:13;8.27;;;2.30;;
71435;SDS011;59251;51.326;12.370;2023-03-04T08:59:39;10.15;;;2.60;;
71435;SDS011;59251;51.326;12.370;2023-03-04T09:02:04;7.63;;;2.00;;
71435;SDS011;59251;51.326;12.370;2023-03-04T09:04:29;12.90;;;2.30;;
71435;SDS011;59251;51.326;12.370;2023-03-04T09:06:55;6.50;;;1.60;;
71435;SDS011;59251;51.326;12.370;2023-03-04T09:09:20;9.73;;;2.40;;
71435;SDS011;59251;51.326;12.370;2023-03-04T09:11:46;11.00;;;2.80;;
71435;SDS011;59251;51.326;12.370;2023-03-04T09:14:11;9.43;;;2.10;;
71435;SDS011;59251;51.326;12.370;2023-03-04T09:16:36;11.27;;;2.70;;
71435;SDS011;59251;51.326;12.370;2023-03-04T09:19:02;6.33;;;1.50;;
71435;SDS011;59251;51.326;12.370;2023-03-04T09:21:27;7.70;;;2.10;;
71435;SDS011;59251;51.326;12.370;2023-03-04T09:23:53;6.70;;;1.50;;
71435;SDS011;59251;51.326;12.370;2023-03-04T09:26:22;12.53;;;1.60;;
71435;SDS011;59251;51.326;12.370;2023-03-04T09:28:50;7.72;;;1.25;;
71435;SDS011;59251;51.326;12.370;2023-03-04T09:31:17;13.60;;;2.22;;
71435;SDS011;59251;51.326;12.370;2023-03-04T09:33:43;10.53;;;1.53;;
71435;SDS011;59251;51.326;12.370;2023-03-04T09:36:09;7.78;;;1.50;;
71435;SDS011;59251;51.326;12.370;2023-03-04T09:38:35;9.38;;;1.83;;
71435;SDS011;59251;51.326;12.370;2023-03-04T09:41:03;10.30;;;1.58;;
71435;SDS011;59251;51.326;12.370;2023-03-04T09:43:32;8.75;;;1.90;;
71435;SDS011;59251;51.326;12.370;2023-03-04T09:45:59;8.38;;;1.77;;
71435;SDS011;59251;51.326;12.370;2023-03-04T09:48:28;10.43;;;2.10;;
71435;SDS011;59251;51.326;12.370;2023-03-04T09:51:05;11.38;;;2.70;;
71435;SDS011;59251;51.326;12.370;2023-03-04T09:53:51;8.13;;;1.67;;
71435;SDS011;59251;51.326;12.370;2023-03-04T09:56:34;13.30;;;2.00;;
71435;SDS011;59251;51.326;12.370;2023-03-04T09:59:16;9.57;;;2.03;;
71435;SDS011;59251;51.326;12.370;2023-03-04T10:01:55;7.07;;;1.60;;
71435;SDS011;59251;51.326;12.370;2023-03-04T10:04:31;10.13;;;1.80;;
71435;SDS011;59251;51.326;12.370;2023-03-04T10:06:59;7.55;;;1.63;;
71435;SDS011;59251;51.326;12.370;2023-03-04T10:09:27;9.23;;;1.35;;
71435;SDS011;59251;51.326;12.370;2023-03-04T10:12:15;11.00;;;1.70;;
71435;SDS011;59251;51.326;12.370;2023-03-04T10:14:49;9.90;;;1.33;;
71435;SDS011;59251;51.326;12.370;2023-03-04T10:17:21;9.00;;;1.77;;
71435;SDS011;59251;51.326;12.370;2023-03-04T10:19:57;8.48;;;1.45;;
71435;SDS011;59251;51.326;12.370;2023-03-04T10:24:57;7.35;;;1.65;;
71435;SDS011;59251;51.326;12.370;2023-03-04T10:27:26;7.77;;;1.53;;
71435;SDS011;59251;51.326;12.370;2023-03-04T10:29:54;8.27;;;1.60;;
71435;SDS011;59251;51.326;12.370;2023-03-04T10:32:22;6.20;;;1.20;;
71435;SDS011;59251;51.326;12.370;2023-03-04T10:34:48;9.70;;;1.77;;
71435;SDS011;59251;51.326;12.370;2023-03-04T10:37:13;6.17;;;1.10;;
71435;SDS011;59251;51.326;12.370;2023-03-04T10:39:45;5.37;;;1.00;;
71435;SDS011;59251;51.326;12.370;2023-03-04T10:44:40;8.50;;;1.40;;
71435;SDS011;59251;51.326;12.370;2023-03-04T10:47:16;5.63;;;0.95;;
71435;SDS011;59251;51.326;12.370;2023-03-04T10:49:52;6.70;;;1.00;;
71435;SDS011;59251;51.326;12.370;2023-03-04T10:55:03;9.55;;;1.73;;
71435;SDS011;59251;51.326;12.370;2023-03-04T10:57:47;8.00;;;1.53;;
71435;SDS011;59251;51.326;12.370;2023-03-04T11:03:16;7.45;;;1.27;;
71435;SDS011;59251;51.326;12.370;2023-03-04T11:05:48;9.55;;;1.50;;
71435;SDS011;59251;51.326;12.370;2023-03-04T11:08:17;7.13;;;1.30;;
71435;SDS011;59251;51.326;12.370;2023-03-04T11:10:46;9.43;;;1.52;;
71435;SDS011;59251;51.326;12.370;2023-03-04T11:15:53;7.18;;;1.10;;
71435;SDS011;59251;51.326;12.370;2023-03-04T11:20:51;8.82;;;1.10;;
71435;SDS011;59251;51.326;12.370;2023-03-04T11:23:20;6.80;;;1.23;;
71435;SDS011;59251;51.326;12.370;2023-03-04T11:25:49;6.55;;;1.40;;
71435;SDS011;59251;51.326;12.370;2023-03-04T11:28:55;7.32;;;1.00;;
71435;SDS011;59251;51.326;12.370;2023-03-04T11:31:12;7.60;;;1.13;;
71435;SDS011;59251;51.326;12.370;2023-03-04T11:34:03;5.35;;;1.13;;
71435;SDS011;59251;51.326;12.370;2023-03-04T11:36:51;5.20;;;1.20;;
71435;SDS011;59251;51.326;12.370;2023-03-04T11:39:32;9.20;;;1.15;;
71435;SDS011;59251;51.326;12.370;2023-03-04T11:42:28;7.93;;;0.98;;
71435;SDS011;59251;51.326;12.370;2023-03-04T11:45:16;7.03;;;1.17;;
71435;SDS011;59251;51.326;12.370;2023-03-04T11:47:57;6.10;;;1.33;;
71435;SDS011;59251;51.326;12.370;2023-03-04T11:50:47;6.32;;;1.20;;
71435;SDS011;59251;51.326;12.370;2023-03-04T12:01:09;6.25;;;1.50;;
71435;SDS011;59251;51.326;12.370;2023-03-04T12:11:29;5.55;;;1.23;;
71435;SDS011;59251;51.326;12.370;2023-03-04T12:17:09;6.87;;;1.23;;
71435;SDS011;59251;51.326;12.370;2023-03-04T12:22:42;7.20;;;1.40;;
71435;SDS011;59251;51.326;12.370;2023-03-04T12:35:37;7.47;;;0.98;;
71435;SDS011;59251;51.326;12.370;2023-03-04T12:38:11;7.13;;;1.10;;
71435;SDS011;59251;51.326;12.370;2023-03-04T12:41:11;5.55;;;0.65;;
71435;SDS011;59251;51.326;12.370;2023-03-04T12:52:15;5.93;;;1.30;;
71435;SDS011;59251;51.326;12.370;2023-03-04T12:54:54;6.97;;;1.10;;
71435;SDS011;59251;51.326;12.370;2023-03-04T12:57:23;5.75;;;1.05;;
71435;SDS011;59251;51.326;12.370;2023-03-04T13:05:34;6.77;;;0.97;;
71435;SDS011;59251;51.326;12.370;2023-03-04T13:10:45;7.07;;;1.50;;
71435;SDS011;59251;51.326;12.370;2023-03-04T13:16:02;8.98;;;2.47;;
71435;SDS011;59251;51.326;12.370;2023-03-04T13:18:30;5.97;;;1.45;;
71435;SDS011;59251;51.326;12.370;2023-03-04T13:23:35;4.57;;;1.00;;
71435;SDS011;59251;51.326;12.370;2023-03-04T13:28:30;6.37;;;1.20;;
71435;SDS011;59251;51.326;12.370;2023-03-04T13:35:49;6.30;;;1.00;;
71435;SDS011;59251;51.326;12.370;2023-03-04T13:43:38;6.35;;;1.08;;
71435;SDS011;59251;51.326;12.370;2023-03-04T13:49:02;6.37;;;1.23;;
71435;SDS011;59251;51.326;12.370;2023-03-04T13:51:34;6.55;;;0.90;;
71435;SDS011;59251;51.326;12.370;2023-03-04T13:56:48;7.30;;;1.40;;
71435;SDS011;59251;51.326;12.370;2023-03-04T13:59:44;6.10;;;1.50;;
71435;SDS011;59251;51.326;12.370;2023-03-04T14:02:16;7.57;;;1.63;;
71435;SDS011;59251;51.326;12.370;2023-03-04T14:04:45;7.13;;;1.90;;
71435;SDS011;59251;51.326;12.370;2023-03-04T14:07:31;7.70;;;1.80;;
71435;SDS011;59251;51.326;12.370;2023-03-04T14:12:30;9.55;;;2.78;;
71435;SDS011;59251;51.326;12.370;2023-03-04T14:15:42;9.20;;;2.63;;
71435;SDS011;59251;51.326;12.370;2023-03-04T14:17:57;10.10;;;2.10;;
71435;SDS011;59251;51.326;12.370;2023-03-04T14:20:30;10.90;;;2.40;;
71435;SDS011;59251;51.326;12.370;2023-03-04T14:22:58;10.07;;;1.90;;
71435;SDS011;59251;51.326;12.370;2023-03-04T14:25:26;6.53;;;1.48;;
71435;SDS011;59251;51.326;12.370;2023-03-04T14:28:03;8.10;;;2.05;;
71435;SDS011;59251;51.326;12.370;2023-03-04T14:30:36;7.80;;;1.70;;
71435;SDS011;59251;51.326;12.370;2023-03-04T14:33:05;7.22;;;1.23;;
71435;SDS011;59251;51.326;12.370;2023-03-04T14:35:31;8.80;;;1.42;;
71435;SDS011;59251;51.326;12.370;2023-03-04T14:38:00;6.20;;;1.17;;
71435;SDS011;59251;51.326;12.370;2023-03-04T14:40:34;8.80;;;1.40;;
71435;SDS011;59251;51.326;12.370;2023-03-04T14:43:05;7.68;;;1.45;;
71435;SDS011;59251;51.326;12.370;2023-03-04T14:45:37;7.40;;;1.40;;
71435;SDS011;59251;51.326;12.370;2023-03-04T14:48:05;10.02;;;1.63;;
71435;SDS011;59251;51.326;12.370;2023-03-04T14:50:31;5.73;;;1.50;;
71435;SDS011;59251;51.326;12.370;2023-03-04T14:55:31;7.88;;;1.40;;
71435;SDS011;59251;51.326;12.370;2023-03-04T14:58:06;7.83;;;1.67;;
71435;SDS011;59251;51.326;12.370;2023-03-04T15:00:46;11.38;;;1.77;;
71435;SDS011;59251;51.326;12.370;2023-03-04T15:05:44;7.40;;;1.75;;
71435;SDS011;59251;51.326;12.370;2023-03-04T15:08:28;7.17;;;1.67;;
71435;SDS011;59251;51.326;12.370;2023-03-04T15:11:00;11.95;;;2.50;;
71435;SDS011;59251;51.326;12.370;2023-03-04T15:13:38;11.15;;;1.98;;
71435;SDS011;59251;51.326;12.370;2023-03-04T15:16:08;7.77;;;1.90;;
71435;SDS011;59251;51.326;12.370;2023-03-04T15:18:35;10.52;;;1.85;;
71435;SDS011;59251;51.326;12.370;2023-03-04T15:21:03;8.93;;;1.70;;
71435;SDS011;59251;51.326;12.370;2023-03-04T15:23:49;8.13;;;1.50;;
71435;SDS011;59251;51.326;12.370;2023-03-04T15:26:14;9.30;;;1.43;;
71435;SDS011;59251;51.326;12.370;2023-03-04T15:28:40;8.10;;;1.80;;
71435;SDS011;59251;51.326;12.370;2023-03-04T15:31:13;8.25;;;1.40;;
71435;SDS011;59251;51.326;12.370;2023-03-04T15:33:40;8.77;;;1.27;;
71435;SDS011;59251;51.326;12.370;2023-03-04T15:36:05;7.60;;;1.00;;
71435;SDS011;59251;51.326;12.370;2023-03-04T15:38:36;6.63;;;1.20;;
71435;SDS011;59251;51.326;12.370;2023-03-04T15:41:02;6.97;;;0.93;;
71435;SDS011;59251;51.326;12.370;2023-03-04T15:43:27;4.60;;;0.93;;
71435;SDS011;59251;51.326;12.370;2023-03-04T15:45:52;8.20;;;1.20;;
71435;SDS011;59251;51.326;12.370;2023-03-04T15:48:18;8.88;;;1.40;;
71435;SDS011;59251;51.326;12.370;2023-03-04T15:50:46;6.17;;;1.20;;
71435;SDS011;59251;51.326;12.370;2023-03-04T15:56:01;8.98;;;1.40;;
71435;SDS011;59251;51.326;12.370;2023-03-04T15:58:29;8.75;;;1.40;;
71435;SDS011;59251;51.326;12.370;2023-03-04T16:00:55;9.25;;;1.50;;
71435;SDS011;59251;51.326;12.370;2023-03-04T16:03:20;4.60;;;0.63;;
71435;SDS011;59251;51.326;12.370;2023-03-04T16:05:47;7.33;;;1.10;;
71435;SDS011;59251;51.326;12.370;2023-03-04T16:08:15;9.68;;;1.10;;
71435;SDS011;59251;51.326;12.370;2023-03-04T16:10:43;7.90;;;0.80;;